Time;durP1;ratioP1;P1;durP2;ratioP2;P2;SDS_P1;SDS_P2;PMS_P1;PMS_P2;Temp;Humidity;BMP_temperature;BMP_pressure;BME280_temperature;BME280_humidity;BME280_pressure;Samples;Min_cycle;Max_cycle;Signal;HPM_P1;HPM_P2
2022/08/09 00:02:10;;;;;;;2.27;1.73;;;14.10;99.90;;;;;;5054318;28;20233;-77
2022/08/09 00:04:37;;;;;;;4.43;1.83;;;14.10;99.90;;;;;;5057035;28;20231;-77
2022/08/09 00:07:05;;;;;;;4.33;1.83;;;14.00;99.90;;;;;;5057968;28;20232;-76
2022/08/09 00:09:33;;;;;;;3.27;1.90;;;14.00;99.90;;;;;;5067991;28;20237;-77
2022/08/09 00:11:59;;;;;;;3.00;2.07;;;14.00;99.90;;;;;;5055798;28;20230;-77
2022/08/09 00:14:26;;;;;;;3.07;1.97;;;14.00;99.90;;;;;;5055872;28;20230;-77
2022/08/09 00:16:53;;;;;;;2.57;1.80;;;14.00;99.90;;;;;;5059064;28;20242;-77
2022/08/09 00:19:19;;;;;;;2.47;1.67;;;13.90;99.90;;;;;;5050259;28;20221;-77
2022/08/09 00:21:46;;;;;;;1.93;1.73;;;13.90;99.90;;;;;;5052491;28;20239;-76
2022/08/09 00:24:13;;;;;;;2.70;1.73;;;13.90;99.90;;;;;;5050434;28;20592;-77
2022/08/09 00:26:41;;;;;;;3.40;1.80;;;13.80;99.90;;;;;;5049190;28;20222;-78
2022/08/09 00:29:09;;;;;;;3.23;1.80;;;13.80;99.90;;;;;;5071980;28;20320;-78
2022/08/09 00:31:36;;;;;;;2.00;1.80;;;13.80;99.90;;;;;;5064148;28;20233;-77
2022/08/09 00:34:02;;;;;;;3.17;1.60;;;13.80;99.90;;;;;;5056738;28;20316;-77
2022/08/09 00:36:30;;;;;;;1.93;1.70;;;13.70;99.90;;;;;;5055828;28;20231;-78
2022/08/09 00:38:57;;;;;;;2.53;1.93;;;13.70;99.90;;;;;;5069964;28;20243;-77
2022/08/09 00:41:23;;;;;;;1.83;1.43;;;13.70;99.90;;;;;;5051260;28;20601;-77
2022/08/09 00:43:53;;;;;;;2.40;1.83;;;13.60;99.90;;;;;;5070057;28;21807;-78
2022/08/09 00:46:20;;;;;;;3.53;2.17;;;13.60;99.90;;;;;;5054058;28;20222;-77
2022/08/09 00:48:47;;;;;;;3.27;1.63;;;13.50;99.90;;;;;;5050882;28;20224;-78
2022/08/09 00:51:16;;;;;;;2.03;1.50;;;13.40;99.90;;;;;;5054742;28;20230;-77
2022/08/09 00:53:44;;;;;;;2.20;2.00;;;13.40;99.90;;;;;;5056607;28;20225;-77
2022/08/09 00:56:11;;;;;;;2.67;1.57;;;13.40;99.90;;;;;;5062929;28;20241;-77
2022/08/09 00:58:38;;;;;;;2.77;1.70;;;13.40;99.90;;;;;;5067427;28;20234;-77
2022/08/09 01:01:11;;;;;;;2.00;1.80;;;13.30;99.90;;;;;;5072145;28;20289;-76
2022/08/09 01:03:46;;;;;;;2.87;1.80;;;13.30;99.90;;;;;;5055871;28;20242;-77
2022/08/09 01:06:20;;;;;;;3.80;1.80;;;13.20;99.90;;;;;;5057408;28;20255;-76
2022/08/09 01:08:54;;;;;;;3.20;1.80;;;13.20;99.90;;;;;;5072698;28;20303;-76
2022/08/09 01:11:31;;;;;;;2.73;1.97;;;13.20;99.90;;;;;;5059166;28;20212;-76
2022/08/09 01:14:02;;;;;;;3.20;1.80;;;13.20;99.90;;;;;;5061362;28;20722;-76
2022/08/09 01:16:35;;;;;;;5.13;1.80;;;13.10;99.90;;;;;;5058752;28;20221;-77
2022/08/09 01:19:13;;;;;;;2.37;1.80;;;13.10;99.90;;;;;;5059466;28;20314;-77
2022/08/09 01:21:47;;;;;;;2.23;1.83;;;13.10;99.90;;;;;;5058015;28;20228;-77
2022/08/09 01:24:24;;;;;;;1.70;1.60;;;13.10;99.90;;;;;;5059482;28;20218;-76
2022/08/09 01:27:02;;;;;;;2.40;1.60;;;13.10;99.90;;;;;;5073899;28;20600;-75
2022/08/09 01:29:34;;;;;;;3.60;2.27;;;13.10;99.90;;;;;;5060282;28;20230;-75
2022/08/09 01:32:03;;;;;;;3.20;2.00;;;13.00;99.90;;;;;;5058176;28;20234;-76
2022/08/09 01:34:32;;;;;;;3.03;1.80;;;13.00;99.90;;;;;;5055699;28;20235;-76
2022/08/09 01:37:03;;;;;;;2.87;2.07;;;13.00;99.90;;;;;;5057408;28;20226;-76
2022/08/09 01:39:34;;;;;;;2.53;1.80;;;13.00;99.90;;;;;;5056464;28;20929;-76
2022/08/09 01:42:02;;;;;;;2.37;1.83;;;13.00;99.90;;;;;;5060382;28;20230;-77
2022/08/09 01:44:30;;;;;;;2.57;1.90;;;12.90;99.90;;;;;;5059151;28;20220;-76
2022/08/09 01:46:58;;;;;;;2.33;1.90;;;12.90;99.90;;;;;;5057444;28;20227;-76
2022/08/09 01:49:25;;;;;;;3.57;2.03;;;12.90;99.90;;;;;;5059131;28;20227;-76
2022/08/09 01:51:57;;;;;;;2.17;1.97;;;12.80;99.90;;;;;;5054059;28;20317;-76
2022/08/09 01:54:29;;;;;;;5.37;2.13;;;12.80;99.90;;;;;;5060280;28;20232;-79
2022/08/09 01:57:00;;;;;;;2.73;1.80;;;12.80;99.90;;;;;;5075115;28;20242;-79
2022/08/09 01:59:29;;;;;;;3.50;1.87;;;12.70;99.90;;;;;;5066213;28;20302;-80
2022/08/09 02:01:57;;;;;;;4.40;2.00;;;12.70;99.90;;;;;;5062876;28;20658;-78
2022/08/09 02:04:26;;;;;;;2.20;1.80;;;12.70;99.90;;;;;;5058578;28;20707;-79
2022/08/09 02:07:09;;;;;;;4.40;2.10;;;12.70;99.90;;;;;;5060202;28;20232;-78
2022/08/09 02:09:39;;;;;;;2.53;2.33;;;12.60;99.90;;;;;;5064319;28;20627;-78
2022/08/09 02:12:09;;;;;;;2.33;2.13;;;12.60;99.90;;;;;;5061909;28;20257;-78
2022/08/09 02:14:38;;;;;;;3.00;2.10;;;12.60;99.90;;;;;;5064137;28;20223;-79
2022/08/09 02:17:07;;;;;;;1.67;1.50;;;12.50;99.90;;;;;;5056680;28;20294;-79
2022/08/09 02:19:34;;;;;;;3.70;2.00;;;12.50;99.90;;;;;;5064755;28;20233;-78
2022/08/09 02:22:05;;;;;;;2.27;1.80;;;12.50;99.90;;;;;;5051920;28;20223;-76
2022/08/09 02:24:36;;;;;;;2.77;2.10;;;12.40;99.90;;;;;;5066580;28;20310;-75
2022/08/09 02:27:06;;;;;;;2.40;2.20;;;12.40;99.90;;;;;;5061812;28;20242;-79
2022/08/09 02:29:41;;;;;;;2.57;1.87;;;12.40;99.90;;;;;;5058999;28;20226;-77
2022/08/09 02:32:10;;;;;;;3.37;2.13;;;12.30;99.90;;;;;;5058831;28;20229;-78
2022/08/09 02:34:40;;;;;;;2.20;1.90;;;12.30;99.90;;;;;;5055584;28;20228;-78
2022/08/09 02:37:14;;;;;;;2.53;2.07;;;12.30;99.90;;;;;;5059060;28;20278;-78
2022/08/09 02:39:45;;;;;;;2.80;2.00;;;12.30;99.90;;;;;;5055183;28;20739;-78
2022/08/09 02:42:17;;;;;;;2.37;1.67;;;12.30;99.90;;;;;;5056284;28;20231;-78
2022/08/09 02:44:48;;;;;;;2.80;2.10;;;12.20;99.90;;;;;;5058697;28;20234;-78
2022/08/09 02:47:18;;;;;;;3.97;2.37;;;12.20;99.90;;;;;;5055253;28;20232;-77
2022/08/09 02:49:50;;;;;;;3.80;2.20;;;12.20;99.90;;;;;;5059799;28;20885;-77
2022/08/09 02:52:19;;;;;;;3.03;2.10;;;12.10;99.90;;;;;;5054177;28;20234;-76
2022/08/09 02:54:48;;;;;;;3.00;2.20;;;12.10;99.90;;;;;;5061770;28;20235;-77
2022/08/09 02:57:18;;;;;;;3.17;2.20;;;12.10;99.90;;;;;;5057126;28;20242;-76
2022/08/09 02:59:47;;;;;;;2.30;2.10;;;12.10;99.90;;;;;;5076971;28;20219;-79
2022/08/09 03:02:19;;;;;;;2.33;1.90;;;12.00;99.90;;;;;;5078741;28;20227;-79
2022/08/09 03:04:47;;;;;;;2.83;2.40;;;12.00;99.90;;;;;;5058752;28;20316;-79
2022/08/09 03:07:15;;;;;;;2.93;2.07;;;12.00;99.90;;;;;;5070984;28;20224;-79
2022/08/09 03:09:44;;;;;;;3.83;2.00;;;12.00;99.90;;;;;;5058152;28;20226;-79
2022/08/09 03:12:12;;;;;;;2.53;2.10;;;11.90;99.90;;;;;;5057062;28;20219;-79
2022/08/09 03:14:40;;;;;;;2.40;2.20;;;11.90;99.90;;;;;;5049595;28;20778;-79
2022/08/09 03:17:09;;;;;;;2.90;2.17;;;11.90;99.90;;;;;;5056658;28;21169;-79
2022/08/09 03:19:38;;;;;;;3.93;2.13;;;11.90;99.90;;;;;;5056450;28;20226;-79
2022/08/09 03:22:07;;;;;;;2.60;2.30;;;11.90;99.90;;;;;;5061751;28;20231;-79
2022/08/09 03:24:37;;;;;;;2.90;1.97;;;11.90;99.90;;;;;;5058438;28;20238;-79
2022/08/09 03:27:05;;;;;;;5.07;2.23;;;11.80;99.90;;;;;;5054192;28;20227;-79
2022/08/09 03:29:32;;;;;;;2.50;1.90;;;11.80;99.90;;;;;;5060766;28;20909;-80
2022/08/09 03:32:00;;;;;;;2.30;2.10;;;11.80;99.90;;;;;;5057030;28;20222;-82
2022/08/09 03:34:28;;;;;;;3.10;2.27;;;11.70;99.90;;;;;;5059136;28;20225;-83
2022/08/09 03:36:56;;;;;;;2.87;2.10;;;11.70;99.90;;;;;;5060422;28;20246;-80
2022/08/09 03:39:23;;;;;;;5.00;2.30;;;11.70;99.90;;;;;;5061814;28;20673;-80
2022/08/09 03:41:50;;;;;;;2.37;2.17;;;11.70;99.90;;;;;;5061415;28;20219;-81
2022/08/09 03:44:17;;;;;;;2.87;2.10;;;11.70;99.90;;;;;;5059377;28;20587;-81
2022/08/09 03:46:44;;;;;;;3.03;2.33;;;11.70;99.90;;;;;;5062918;28;20226;-80
2022/08/09 03:49:12;;;;;;;2.77;2.20;;;11.70;99.90;;;;;;5053271;28;20434;-80
2022/08/09 03:51:41;;;;;;;2.97;2.10;;;11.60;99.90;;;;;;5055370;28;20238;-80
2022/08/09 03:54:09;;;;;;;2.37;2.00;;;11.60;99.90;;;;;;5060217;28;20398;-81
2022/08/09 03:56:40;;;;;;;2.97;2.43;;;11.60;99.90;;;;;;5056694;28;20727;-81
2022/08/09 03:59:07;;;;;;;3.60;2.50;;;11.60;99.90;;;;;;5057224;28;20274;-80
2022/08/09 04:01:35;;;;;;;2.60;2.40;;;11.60;99.90;;;;;;5050015;28;20227;-80
2022/08/09 04:04:03;;;;;;;2.73;2.30;;;11.60;99.90;;;;;;5050340;28;20238;-79
2022/08/09 04:06:30;;;;;;;3.30;3.00;;;11.60;99.90;;;;;;5055211;28;20227;-79
2022/08/09 04:09:01;;;;;;;4.43;2.80;;;11.50;99.90;;;;;;5053935;28;20219;-80
2022/08/09 04:11:35;;;;;;;5.60;2.77;;;11.60;99.90;;;;;;5056463;28;20774;-79
2022/08/09 04:14:01;;;;;;;3.07;2.40;;;11.50;99.90;;;;;;5054327;28;20713;-82
2022/08/09 04:16:28;;;;;;;3.00;2.30;;;11.50;99.90;;;;;;5051693;28;20219;-79
2022/08/09 04:18:54;;;;;;;4.50;2.43;;;11.50;99.90;;;;;;5061841;28;20223;-80
2022/08/09 04:21:23;;;;;;;2.97;2.57;;;11.60;99.90;;;;;;5062055;28;20239;-82
2022/08/09 04:23:50;;;;;;;3.43;2.73;;;11.50;99.90;;;;;;5060549;28;20755;-80
2022/08/09 04:26:18;;;;;;;4.23;2.70;;;11.50;99.90;;;;;;5057564;28;20260;-82
2022/08/09 04:28:45;;;;;;;3.10;2.40;;;11.60;99.90;;;;;;5051590;28;20709;-78
2022/08/09 04:31:11;;;;;;;3.97;2.30;;;11.60;99.90;;;;;;5063011;28;20230;-78
2022/08/09 04:33:39;;;;;;;3.67;2.90;;;11.60;99.90;;;;;;5058694;28;20223;-80
2022/08/09 04:36:09;;;;;;;5.20;2.83;;;11.60;99.90;;;;;;5052707;28;20216;-80
2022/08/09 04:38:36;;;;;;;4.20;2.90;;;11.60;99.90;;;;;;5059942;28;20223;-79
2022/08/09 04:41:04;;;;;;;4.73;4.23;;;11.70;99.90;;;;;;5058962;28;20253;-78
2022/08/09 04:43:32;;;;;;;6.70;4.67;;;11.70;99.90;;;;;;5055730;28;20243;-77
2022/08/09 04:45:59;;;;;;;4.00;3.23;;;11.70;99.90;;;;;;5073641;28;20251;-79
2022/08/09 04:48:26;;;;;;;3.27;2.67;;;11.70;99.90;;;;;;5060513;28;20376;-78
2022/08/09 04:50:53;;;;;;;4.13;3.20;;;11.80;99.90;;;;;;5049835;28;20226;-78
2022/08/09 04:53:20;;;;;;;4.07;3.43;;;11.80;99.90;;;;;;5058478;28;20220;-78
2022/08/09 04:55:47;;;;;;;4.13;3.23;;;11.80;99.90;;;;;;5060811;28;20759;-79
2022/08/09 04:58:14;;;;;;;4.13;3.40;;;11.90;99.90;;;;;;5058961;28;20221;-80
2022/08/09 05:00:42;;;;;;;4.83;3.17;;;11.90;99.90;;;;;;5059382;28;20231;-79
2022/08/09 05:03:09;;;;;;;4.87;3.90;;;11.90;99.90;;;;;;5059104;28;20255;-79
2022/08/09 05:05:35;;;;;;;4.77;3.70;;;12.00;99.90;;;;;;5053759;28;20678;-79
2022/08/09 05:08:02;;;;;;;5.93;4.00;;;12.00;99.90;;;;;;5048810;28;20241;-80
2022/08/09 05:10:29;;;;;;;7.97;4.43;;;12.10;99.90;;;;;;5056503;28;20314;-79
2022/08/09 05:12:56;;;;;;;5.67;4.13;;;12.10;99.90;;;;;;5059171;28;20310;-80
2022/08/09 05:15:25;;;;;;;6.97;3.73;;;12.10;99.90;;;;;;5055793;28;20257;-79
2022/08/09 05:17:53;;;;;;;5.33;4.23;;;12.20;99.90;;;;;;5047482;28;20231;-79
2022/08/09 05:20:20;;;;;;;5.87;4.83;;;12.20;99.90;;;;;;5046141;28;20226;-79
2022/08/09 05:22:47;;;;;;;5.80;4.10;;;12.30;99.90;;;;;;5068844;28;20234;-79
2022/08/09 05:25:15;;;;;;;6.37;4.30;;;12.30;99.90;;;;;;5060654;28;20227;-79
2022/08/09 05:27:41;;;;;;;4.87;4.10;;;12.40;99.90;;;;;;5054180;28;20240;-79
2022/08/09 05:30:09;;;;;;;7.20;4.23;;;12.40;99.90;;;;;;5056167;28;20225;-80
2022/08/09 05:32:39;;;;;;;6.43;4.47;;;12.50;99.90;;;;;;5053833;28;20222;-79
2022/08/09 05:35:08;;;;;;;5.03;4.30;;;12.50;99.90;;;;;;5053497;28;20678;-80
2022/08/09 05:37:35;;;;;;;5.90;4.10;;;12.60;99.90;;;;;;5057884;28;20232;-79
2022/08/09 05:40:03;;;;;;;4.83;3.77;;;12.70;99.90;;;;;;5056332;28;20656;-79
2022/08/09 05:42:30;;;;;;;5.80;4.20;;;12.70;99.90;;;;;;5057868;28;20234;-79
2022/08/09 05:44:58;;;;;;;6.37;4.10;;;12.80;99.90;;;;;;5057280;28;20945;-80
2022/08/09 05:47:26;;;;;;;7.40;4.30;;;12.90;99.90;;;;;;5049880;28;20230;-79
2022/08/09 05:49:55;;;;;;;6.30;4.10;;;12.90;99.90;;;;;;5057383;28;20228;-79
2022/08/09 05:52:26;;;;;;;6.83;3.87;;;13.00;99.90;;;;;;5058092;28;20627;-79
2022/08/09 05:54:52;;;;;;;5.13;4.07;;;13.10;99.90;;;;;;5073006;28;20243;-79
2022/08/09 05:57:19;;;;;;;7.67;4.37;;;13.10;99.90;;;;;;5046180;28;20236;-82
2022/08/09 05:59:46;;;;;;;4.83;3.97;;;13.20;99.90;;;;;;5059074;28;20225;-78
2022/08/09 06:02:15;;;;;;;4.97;3.40;;;13.30;99.90;;;;;;5055929;28;20739;-80
2022/08/09 06:04:42;;;;;;;7.43;3.90;;;13.30;99.90;;;;;;5058402;28;20220;-79
2022/08/09 06:07:09;;;;;;;4.30;3.70;;;13.40;99.90;;;;;;5058420;28;20228;-79
2022/08/09 06:09:43;;;;;;;4.77;3.60;;;13.50;99.90;;;;;;5056075;28;20310;-79
2022/08/09 06:12:10;;;;;;;5.10;3.73;;;13.50;99.90;;;;;;5059165;28;20346;-79
2022/08/09 06:14:36;;;;;;;6.37;4.17;;;13.60;99.90;;;;;;5051134;28;20225;-79
2022/08/09 06:17:03;;;;;;;4.10;3.57;;;13.70;99.90;;;;;;5056960;28;20220;-79
2022/08/09 06:19:30;;;;;;;5.10;3.50;;;13.80;99.90;;;;;;5057603;28;20318;-78
2022/08/09 06:21:57;;;;;;;4.33;3.23;;;13.90;99.90;;;;;;5052556;28;20232;-79
2022/08/09 06:24:24;;;;;;;5.23;3.37;;;13.90;99.90;;;;;;5056135;28;20236;-78
2022/08/09 06:26:52;;;;;;;4.87;3.20;;;14.00;99.90;;;;;;5052136;28;20225;-79
2022/08/09 06:29:18;;;;;;;5.43;3.30;;;14.10;99.90;;;;;;5053962;28;20230;-79
2022/08/09 06:31:45;;;;;;;4.90;3.10;;;14.10;99.90;;;;;;5055141;28;20761;-79
2022/08/09 06:34:12;;;;;;;5.83;3.23;;;14.20;99.90;;;;;;5051792;28;20234;-78
2022/08/09 06:36:38;;;;;;;7.17;3.53;;;14.30;99.90;;;;;;5057997;28;20228;-79
2022/08/09 06:39:10;;;;;;;4.93;3.10;;;14.50;99.90;;;;;;5053912;28;20222;-80
2022/08/09 06:41:36;;;;;;;4.37;2.83;;;14.60;99.90;;;;;;5055696;28;20674;-77
2022/08/09 06:44:13;;;;;;;4.23;2.50;;;14.70;99.90;;;;;;5058889;28;20230;-79
2022/08/09 06:46:39;;;;;;;6.70;3.17;;;14.90;99.90;;;;;;5055484;28;20229;-80
2022/08/09 06:49:08;;;;;;;4.80;3.00;;;15.00;99.90;;;;;;5054751;28;20245;-82
2022/08/09 06:51:37;;;;;;;5.27;2.97;;;15.10;99.90;;;;;;5055084;28;20325;-81
2022/08/09 06:54:04;;;;;;;3.70;2.80;;;15.30;99.90;;;;;;5052227;28;20878;-82
2022/08/09 06:56:30;;;;;;;3.97;2.93;;;15.40;99.90;;;;;;5049666;28;20238;-80
2022/08/09 06:58:57;;;;;;;4.17;2.60;;;15.50;99.90;;;;;;5052934;28;20226;-81
2022/08/09 07:01:25;;;;;;;4.33;2.97;;;15.60;99.90;;;;;;5058487;28;20236;-80
2022/08/09 07:03:52;;;;;;;3.87;3.03;;;15.70;99.90;;;;;;5055611;28;20277;-82
2022/08/09 07:06:18;;;;;;;3.83;2.73;;;15.80;99.90;;;;;;5060272;28;20316;-80
2022/08/09 07:08:45;;;;;;;3.43;2.83;;;15.90;99.90;;;;;;5055715;28;20818;-82
2022/08/09 07:11:12;;;;;;;6.70;2.93;;;15.90;99.90;;;;;;5053128;28;20231;-80
2022/08/09 07:13:38;;;;;;;5.53;3.07;;;16.00;99.90;;;;;;5054393;28;20901;-81
2022/08/09 07:16:06;;;;;;;3.57;2.67;;;16.10;99.90;;;;;;5047626;28;20762;-81
2022/08/09 07:18:34;;;;;;;5.03;2.80;;;16.30;99.90;;;;;;5058005;28;20218;-80
2022/08/09 07:21:00;;;;;;;4.47;2.22;;;16.50;99.90;;;;;;5054789;28;20766;-81
2022/08/09 07:23:27;;;;;;;2.20;1.90;;;16.90;99.90;;;;;;5059447;28;20223;-81
2022/08/09 07:25:54;;;;;;;4.50;2.20;;;17.50;99.90;;;;;;5058632;28;20226;-82
2022/08/09 07:28:20;;;;;;;4.35;2.20;;;18.10;99.90;;;;;;5051294;28;20227;-84
2022/08/09 07:30:49;;;;;;;3.90;2.30;;;18.90;99.90;;;;;;5053789;28;20243;-81
2022/08/09 07:33:16;;;;;;;2.15;1.70;;;19.70;99.90;;;;;;5070120;28;20247;-81
2022/08/09 07:35:44;;;;;;;4.32;1.67;;;20.70;99.90;;;;;;5060498;28;20219;-83
2022/08/09 07:38:10;;;;;;;2.85;1.92;;;21.50;99.90;;;;;;5055395;28;20223;-84
2022/08/09 07:40:37;;;;;;;2.90;2.00;;;22.40;99.90;;;;;;5050179;28;20527;-81
2022/08/09 07:43:04;;;;;;;2.97;1.60;;;23.10;99.90;;;;;;5056439;28;20610;-83
2022/08/09 07:45:31;;;;;;;2.05;1.85;;;23.80;99.90;;;;;;5054302;28;20815;-81
2022/08/09 07:47:59;;;;;;;2.92;1.40;;;24.40;99.70;;;;;;5058511;28;20238;-82
2022/08/09 07:50:27;;;;;;;3.97;1.70;;;25.00;98.70;;;;;;5054316;28;20384;-82
2022/08/09 07:52:55;;;;;;;3.25;1.73;;;25.50;97.60;;;;;;5052196;28;20311;-82
2022/08/09 07:55:22;;;;;;;2.20;1.40;;;26.00;96.00;;;;;;5053300;28;20215;-81
2022/08/09 07:57:49;;;;;;;2.25;1.63;;;26.50;96.00;;;;;;5059785;28;20310;-82
2022/08/09 08:00:18;;;;;;;5.10;1.58;;;27.00;94.90;;;;;;5058812;28;20234;-81
2022/08/09 08:02:45;;;;;;;3.03;1.52;;;27.40;93.80;;;;;;5054488;28;20259;-83
2022/08/09 08:05:12;;;;;;;2.05;1.38;;;27.80;93.50;;;;;;5056173;28;20228;-82
2022/08/09 08:07:38;;;;;;;2.05;1.13;;;28.30;92.70;;;;;;5056264;28;20230;-83
2022/08/09 08:10:07;;;;;;;3.85;1.33;;;28.70;91.90;;;;;;5057278;28;20230;-82
2022/08/09 08:12:35;;;;;;;1.77;1.20;;;29.00;90.50;;;;;;5054393;28;20795;-82
2022/08/09 08:15:01;;;;;;;2.47;1.50;;;29.40;89.70;;;;;;5055284;28;20823;-82
2022/08/09 08:17:28;;;;;;;1.85;1.10;;;29.80;88.40;;;;;;5063552;28;20231;-82
2022/08/09 08:19:55;;;;;;;2.03;1.17;;;30.00;84.80;;;;;;5057724;28;20228;-84
2022/08/09 08:22:21;;;;;;;2.75;1.30;;;30.10;83.10;;;;;;5060270;28;20311;-83
2022/08/09 08:24:54;;;;;;;2.05;1.08;;;30.20;83.30;;;;;;5063874;28;20266;-83
2022/08/09 08:27:23;;;;;;;3.95;1.45;;;30.30;82.60;;;;;;5063767;28;20596;-82
2022/08/09 08:29:49;;;;;;;3.58;1.30;;;30.40;80.40;;;;;;5061238;28;20222;-84
2022/08/09 08:32:16;;;;;;;2.15;1.10;;;30.70;81.10;;;;;;5062410;28;20219;-82
2022/08/09 08:34:43;;;;;;;2.35;1.17;;;30.90;79.60;;;;;;5060841;28;20231;-82
2022/08/09 08:37:10;;;;;;;3.28;1.02;;;31.20;78.60;;;;;;5062335;28;20318;-82
2022/08/09 08:39:37;;;;;;;2.75;1.05;;;31.40;77.70;;;;;;5056649;28;20283;-84
2022/08/09 08:42:04;;;;;;;2.35;0.93;;;31.60;76.50;;;;;;5055056;28;20234;-82
2022/08/09 08:44:35;;;;;;;1.80;0.90;;;31.90;74.90;;;;;;5063087;28;20228;-82
2022/08/09 08:47:07;;;;;;;2.85;1.20;;;32.10;73.60;;;;;;5060412;28;20231;-83
2022/08/09 08:49:37;;;;;;;2.22;1.00;;;32.30;73.40;;;;;;5058988;28;20257;-84
2022/08/09 08:52:05;;;;;;;2.85;1.10;;;32.40;70.70;;;;;;5058641;28;20262;-83
2022/08/09 08:54:32;;;;;;;2.20;1.17;;;32.40;69.60;;;;;;5062203;28;20223;-84
2022/08/09 08:56:58;;;;;;;2.85;0.82;;;32.10;68.30;;;;;;5056521;28;20323;-83
2022/08/09 08:59:25;;;;;;;1.48;0.80;;;31.80;67.70;;;;;;5050229;28;20335;-82
2022/08/09 09:01:54;;;;;;;2.58;0.93;;;31.30;68.60;;;;;;5044496;28;20338;-82
2022/08/09 09:04:28;;;;;;;3.30;1.10;;;30.90;69.00;;;;;;5069249;28;20566;-83
2022/08/09 09:06:57;;;;;;;2.20;1.13;;;30.60;70.60;;;;;;5081247;22;20360;-83
2022/08/09 09:09:27;;;;;;;2.20;0.98;;;30.60;70.40;;;;;;5074233;28;20257;-85
2022/08/09 09:11:54;;;;;;;2.13;0.90;;;30.80;69.70;;;;;;5076252;28;20265;-86
2022/08/09 09:14:24;;;;;;;2.55;0.85;;;31.00;69.90;;;;;;5073634;28;20284;-86
2022/08/09 09:16:54;;;;;;;1.15;0.70;;;31.30;69.20;;;;;;5069401;28;20231;-85
2022/08/09 09:19:20;;;;;;;1.30;0.70;;;31.60;69.00;;;;;;5055168;28;20310;-85
2022/08/09 09:22:02;;;;;;;2.35;0.93;;;31.90;68.40;;;;;;5058844;28;20227;-85
2022/08/09 09:24:31;;;;;;;2.00;0.90;;;32.30;67.20;;;;;;5059651;28;20223;-83
2022/08/09 09:27:00;;;;;;;1.10;0.90;;;32.70;66.10;;;;;;5057236;28;20223;-83
2022/08/09 09:29:31;;;;;;;2.90;1.00;;;33.00;65.70;;;;;;5056693;28;20230;-83
2022/08/09 09:32:00;;;;;;;1.52;1.00;;;33.30;63.00;;;;;;5058700;28;20224;-83
2022/08/09 09:34:27;;;;;;;1.08;0.70;;;33.40;62.40;;;;;;5069125;28;20219;-82
2022/08/09 09:36:54;;;;;;;1.88;0.95;;;33.50;62.10;;;;;;5059379;28;20230;-83
2022/08/09 09:39:22;;;;;;;2.97;1.27;;;33.60;61.70;;;;;;5061070;28;20225;-82
2022/08/09 09:41:49;;;;;;;2.35;0.93;;;33.80;61.40;;;;;;5062120;28;20674;-82
2022/08/09 09:44:24;;;;;;;2.65;0.95;;;34.10;60.70;;;;;;5062067;28;20242;-83
2022/08/09 09:46:54;;;;;;;2.15;0.80;;;34.20;58.90;;;;;;5066504;28;20305;-83
2022/08/09 09:49:24;;;;;;;2.05;0.90;;;34.20;57.60;;;;;;5059811;28;20595;-83
2022/08/09 09:52:01;;;;;;;2.70;0.88;;;33.90;56.60;;;;;;5063788;28;20875;-82
2022/08/09 09:54:35;;;;;;;2.08;0.70;;;33.40;56.50;;;;;;5057491;28;20239;-83
2022/08/09 09:57:13;;;;;;;2.40;0.88;;;33.00;56.90;;;;;;5063064;28;20222;-83
2022/08/09 09:59:40;;;;;;;3.17;0.88;;;32.40;56.50;;;;;;5056157;28;20227;-82
2022/08/09 10:02:06;;;;;;;2.53;0.70;;;31.90;56.80;;;;;;5056560;28;20328;-83
2022/08/09 10:04:34;;;;;;;1.23;0.80;;;31.50;57.40;;;;;;5059159;28;20591;-83
2022/08/09 10:07:01;;;;;;;5.47;1.00;;;31.10;58.00;;;;;;5075156;28;20234;-86
2022/08/09 10:09:45;;;;;;;0.88;0.73;;;30.70;58.90;;;;;;5070807;28;20436;-86
2022/08/09 10:12:11;;;;;;;1.48;0.85;;;30.40;58.80;;;;;;5064925;28;20219;-85
2022/08/09 10:14:38;;;;;;;2.97;0.75;;;30.10;59.10;;;;;;5066903;28;20227;-85
2022/08/09 10:17:11;;;;;;;3.25;0.80;;;29.90;59.90;;;;;;5067458;28;20729;-86
2022/08/09 10:19:39;;;;;;;1.52;0.85;;;29.80;59.00;;;;;;5064175;28;20242;-85
2022/08/09 10:22:06;;;;;;;2.35;0.80;;;30.00;59.60;;;;;;5078802;28;20229;-86
2022/08/09 10:24:33;;;;;;;2.40;0.90;;;30.20;59.40;;;;;;5065484;28;20222;-85
2022/08/09 10:27:00;;;;;;;2.17;0.80;;;30.50;60.10;;;;;;5063651;28;20234;-86
2022/08/09 10:29:28;;;;;;;2.30;1.00;;;30.80;59.40;;;;;;5062940;28;20247;-84
2022/08/09 10:31:55;;;;;;;3.97;1.00;;;31.10;58.80;;;;;;5079124;28;20219;-83
2022/08/09 10:34:21;;;;;;;1.95;1.15;;;31.20;58.00;;;;;;5062790;28;20239;-83
2022/08/09 10:36:55;;;;;;;1.63;0.70;;;31.20;58.20;;;;;;5081261;28;20322;-84
2022/08/09 10:39:23;;;;;;;2.78;1.00;;;31.20;58.10;;;;;;5058666;28;20226;-86
2022/08/09 10:41:50;;;;;;;2.33;1.13;;;31.20;58.30;;;;;;5061855;28;20226;-83
2022/08/09 10:44:19;;;;;;;1.17;0.70;;;31.20;58.10;;;;;;5055020;28;20229;-85
2022/08/09 10:47:07;;;;;;;2.65;0.80;;;31.20;58.00;;;;;;5056150;28;20249;-85
2022/08/09 10:49:45;;;;;;;2.40;1.00;;;31.20;59.00;;;;;;5059148;28;20233;-85
2022/08/09 10:52:25;;;;;;;2.90;0.90;;;31.30;58.00;;;;;;5062548;28;20223;-85
2022/08/09 10:54:52;;;;;;;3.95;1.00;;;31.40;57.30;;;;;;5056647;28;20249;-85
2022/08/09 10:57:22;;;;;;;1.60;0.77;;;31.50;57.30;;;;;;5055378;28;20315;-86
2022/08/09 10:59:48;;;;;;;1.13;0.73;;;31.50;56.60;;;;;;5055565;28;20219;-86
2022/08/09 11:02:17;;;;;;;1.58;0.75;;;31.50;56.50;;;;;;5047314;28;20227;-84
2022/08/09 11:05:03;;;;;;;1.90;0.85;;;31.50;56.50;;;;;;5063843;28;20234;-86
2022/08/09 11:07:32;;;;;;;3.40;0.70;;;31.60;56.70;;;;;;5075184;28;20316;-84
2022/08/09 11:09:59;;;;;;;2.15;1.02;;;31.80;56.50;;;;;;5057831;28;20667;-83
2022/08/09 11:12:27;;;;;;;1.65;0.80;;;32.10;56.40;;;;;;5060275;28;20227;-83
2022/08/09 11:14:55;;;;;;;1.83;0.68;;;32.40;55.90;;;;;;5057649;28;20257;-84
2022/08/09 11:17:54;;;;;;;1.55;0.90;;;32.80;55.80;;;;;;5063611;28;20223;-85
2022/08/09 11:20:43;;;;;;;1.40;0.75;;;33.30;55.30;;;;;;5078535;28;20226;-84
2022/08/09 11:23:12;;;;;;;0.98;0.70;;;33.60;52.80;;;;;;5058174;28;20256;-84
2022/08/09 11:25:47;;;;;;;2.67;0.70;;;33.80;52.80;;;;;;5061516;28;20219;-84
2022/08/09 11:28:36;;;;;;;2.42;0.90;;;33.80;51.60;;;;;;5057911;28;20643;-84
2022/08/09 11:31:24;;;;;;;4.22;0.90;;;33.70;51.90;;;;;;5061541;28;20251;-84
2022/08/09 11:33:54;;;;;;;0.73;0.73;;;33.60;52.80;;;;;;5063627;28;20239;-84
2022/08/09 11:36:25;;;;;;;0.98;0.60;;;33.70;52.10;;;;;;5061805;28;20735;-84
2022/08/09 11:39:02;;;;;;;1.98;0.73;;;33.70;51.20;;;;;;5063502;28;20223;-84
2022/08/09 11:41:30;;;;;;;1.58;0.80;;;33.50;51.20;;;;;;5075802;28;21343;-83
2022/08/09 11:43:57;;;;;;;2.78;1.02;;;33.20;51.80;;;;;;5063741;28;20223;-84
2022/08/09 11:46:26;;;;;;;1.52;1.00;;;32.90;52.10;;;;;;5049963;28;20231;-85
2022/08/09 11:48:55;;;;;;;1.63;0.75;;;32.40;52.70;;;;;;5075160;28;20388;-84
2022/08/09 11:51:23;;;;;;;2.78;0.98;;;32.00;53.00;;;;;;5061861;28;20333;-85
2022/08/09 11:54:15;;;;;;;1.63;0.93;;;31.60;53.00;;;;;;5061747;28;20243;-85
2022/08/09 11:56:42;;;;;;;1.02;0.70;;;31.30;53.70;;;;;;5064198;28;20310;-84
2022/08/09 11:59:10;;;;;;;2.17;1.00;;;31.10;54.20;;;;;;5062768;28;20229;-84
2022/08/09 12:01:39;;;;;;;2.03;1.00;;;30.90;55.00;;;;;;5064507;28;20334;-84
2022/08/09 12:04:10;;;;;;;1.70;0.80;;;30.80;55.20;;;;;;5067242;28;20223;-84
2022/08/09 12:06:38;;;;;;;2.15;1.00;;;30.70;55.30;;;;;;5063417;28;20239;-84
2022/08/09 12:09:10;;;;;;;1.48;0.75;;;30.70;55.00;;;;;;5060048;28;20779;-83
2022/08/09 12:11:38;;;;;;;5.70;0.80;;;30.60;54.60;;;;;;5054301;28;20220;-86
2022/08/09 12:14:08;;;;;;;2.20;0.80;;;30.70;54.40;;;;;;5059383;28;20220;-85
2022/08/09 12:16:37;;;;;;;1.63;0.63;;;30.70;54.60;;;;;;5058939;28;20910;-86
2022/08/09 12:19:05;;;;;;;1.25;0.70;;;30.60;54.30;;;;;;5061205;28;20830;-86
2022/08/09 12:21:33;;;;;;;3.00;1.00;;;30.60;53.90;;;;;;5065856;28;20227;-85
2022/08/09 12:24:03;;;;;;;1.55;0.70;;;30.70;54.20;;;;;;5055814;28;20223;-82
2022/08/09 12:26:42;;;;;;;2.08;0.90;;;30.80;53.70;;;;;;5061304;28;20231;-84
2022/08/09 12:29:15;;;;;;;2.25;0.95;;;31.00;53.90;;;;;;5057370;28;20225;-85
2022/08/09 12:31:42;;;;;;;1.15;0.70;;;31.30;53.90;;;;;;5056713;28;20218;-86
2022/08/09 12:34:09;;;;;;;1.33;0.68;;;31.60;53.30;;;;;;5058202;28;21399;-84
2022/08/09 12:36:49;;;;;;;1.55;0.70;;;31.80;51.70;;;;;;5059487;28;20265;-84
2022/08/09 12:39:16;;;;;;;1.77;0.77;;;31.90;50.60;;;;;;5055134;28;20219;-84
2022/08/09 12:41:44;;;;;;;1.73;0.80;;;32.20;51.00;;;;;;5057567;28;20237;-84
2022/08/09 12:44:11;;;;;;;0.80;0.68;;;32.30;51.50;;;;;;5058871;28;20227;-84
2022/08/09 12:46:40;;;;;;;4.43;0.90;;;32.60;50.80;;;;;;5059199;28;20620;-84
2022/08/09 12:49:07;;;;;;;1.67;0.98;;;32.90;50.40;;;;;;5056219;28;20220;-84
2022/08/09 12:51:35;;;;;;;2.15;0.90;;;33.00;50.30;;;;;;5049931;28;20234;-84
2022/08/09 12:54:03;;;;;;;0.90;0.60;;;33.20;50.00;;;;;;5051374;28;20313;-84
2022/08/09 12:56:30;;;;;;;1.63;0.70;;;33.30;49.40;;;;;;5052822;28;20657;-84
2022/08/09 12:59:07;;;;;;;1.15;0.77;;;33.40;49.60;;;;;;5055725;28;20251;-85